Time;durP1;ratioP1;P1;durP2;ratioP2;P2;SDS_P1;SDS_P2;PMS_P1;PMS_P2;Temp;Humidity;BMP_temperature;BMP_pressure;BME280_temperature;BME280_humidity;BME280_pressure;Samples;Min_cycle;Max_cycle;Signal;HPM_P1;HPM_P2
2022/08/25 00:01:45;;;;;;;10.35;5.40;;;;;;;;;;5038422;28;20048;-68
2022/08/25 00:04:12;;;;;;;6.65;5.60;;;;;;;;;;5052596;28;20044;-68
2022/08/25 00:06:39;;;;;;;9.02;5.40;;;;;;;;;;5052292;28;20103;-68
2022/08/25 00:09:05;;;;;;;6.88;5.45;;;;;;;;;;5052001;28;20064;-68
2022/08/25 00:11:32;;;;;;;6.10;5.45;;;;;;;;;;5034464;28;20044;-68
2022/08/25 00:14:00;;;;;;;10.48;5.18;;;;;;;;;;5034542;28;20041;-68
2022/08/25 00:16:27;;;;;;;8.38;5.57;;;;;;;;;;5034093;28;20478;-68
2022/08/25 00:18:54;;;;;;;5.85;5.13;;;;;;;;;;5052456;28;20397;-68
2022/08/25 00:21:20;;;;;;;11.45;5.88;;;;;;;;;;5034436;28;20047;-68
2022/08/25 00:23:47;;;;;;;5.90;5.30;;;;;;;;;;5034205;28;20052;-68
2022/08/25 00:26:14;;;;;;;6.28;5.05;;;;;;;;;;5034187;28;20047;-68
2022/08/25 00:28:41;;;;;;;8.25;5.18;;;;;;;;;;5052369;28;20091;-68
2022/08/25 00:31:10;;;;;;;6.75;4.85;;;;;;;;;;5051734;28;20044;-68
2022/08/25 00:33:36;;;;;;;6.72;5.40;;;;;;;;;;5034277;28;20094;-68
2022/08/25 00:36:02;;;;;;;5.70;5.00;;;;;;;;;;5052178;28;20044;-68
2022/08/25 00:38:28;;;;;;;7.07;5.28;;;;;;;;;;5033908;28;20052;-68
2022/08/25 00:41:07;;;;;;;6.05;4.93;;;;;;;;;;5034260;28;20050;-68
2022/08/25 00:43:44;;;;;;;8.48;4.97;;;;;;;;;;5033979;28;20041;-68
2022/08/25 00:46:12;;;;;;;10.63;5.10;;;;;;;;;;5033421;28;20044;-68
2022/08/25 00:48:38;;;;;;;8.27;5.35;;;;;;;;;;5052058;28;20592;-68
2022/08/25 00:51:06;;;;;;;7.80;4.78;;;;;;;;;;5034013;28;20076;-68
2022/08/25 00:53:32;;;;;;;5.80;5.05;;;;;;;;;;5051448;28;20124;-68
2022/08/25 00:55:58;;;;;;;6.72;4.32;;;;;;;;;;5033775;28;20041;-68
2022/08/25 00:58:26;;;;;;;7.18;4.50;;;;;;;;;;5034065;28;20383;-68
2022/08/25 01:00:54;;;;;;;8.32;4.22;;;;;;;;;;5018500;28;20068;-68
2022/08/25 01:03:21;;;;;;;6.30;4.55;;;;;;;;;;5051288;28;20048;-68
2022/08/25 01:05:48;;;;;;;8.40;4.68;;;;;;;;;;5051466;28;20041;-68
2022/08/25 01:08:14;;;;;;;6.43;4.57;;;;;;;;;;5032887;28;20136;-68
2022/08/25 01:10:42;;;;;;;7.95;4.75;;;;;;;;;;5016489;28;20041;-68
2022/08/25 01:13:22;;;;;;;7.88;4.25;;;;;;;;;;5051732;28;20044;-68
2022/08/25 01:15:49;;;;;;;8.98;4.50;;;;;;;;;;5033014;28;20049;-68
2022/08/25 01:18:15;;;;;;;7.30;3.85;;;;;;;;;;5051514;28;20132;-68
2022/08/25 01:20:41;;;;;;;6.00;4.10;;;;;;;;;;5051510;28;20120;-68
2022/08/25 01:23:07;;;;;;;4.97;4.15;;;;;;;;;;5033016;28;20037;-68
2022/08/25 01:25:40;;;;;;;5.95;4.57;;;;;;;;;;5033235;28;20049;-68
2022/08/25 01:28:05;;;;;;;;;;;;;;;;;;5051578;28;20090;-68
2022/08/25 01:30:32;;;;;;;6.70;4.20;;;;;;;;;;5033007;28;19916;-68
2022/08/25 01:32:58;;;;;;;4.88;4.20;;;;;;;;;;5051209;28;20430;-68
2022/08/25 01:35:24;;;;;;;6.22;3.40;;;;;;;;;;5033658;28;20049;-68
2022/08/25 01:37:50;;;;;;;6.20;3.85;;;;;;;;;;5032822;28;20045;-68
2022/08/25 01:40:16;;;;;;;5.75;3.97;;;;;;;;;;5051095;28;20048;-68
2022/08/25 01:42:42;;;;;;;6.43;3.83;;;;;;;;;;5051079;28;20084;-68
2022/08/25 01:45:09;;;;;;;4.25;3.40;;;;;;;;;;5031578;28;20076;-68
2022/08/25 01:47:36;;;;;;;5.55;3.70;;;;;;;;;;5032895;28;20049;-68
2022/08/25 01:50:02;;;;;;;5.75;3.65;;;;;;;;;;5050769;28;20037;-68
2022/08/25 01:52:31;;;;;;;5.18;3.72;;;;;;;;;;5032019;28;20483;-68
2022/08/25 01:54:57;;;;;;;7.38;3.47;;;;;;;;;;5050388;28;20041;-68
2022/08/25 01:57:23;;;;;;;9.43;3.78;;;;;;;;;;5050478;28;20108;-68
2022/08/25 01:59:49;;;;;;;8.23;3.70;;;;;;;;;;5026013;28;20068;-68
2022/08/25 02:02:15;;;;;;;6.03;3.85;;;;;;;;;;5023684;28;20045;-68
2022/08/25 02:04:41;;;;;;;6.90;3.60;;;;;;;;;;5033210;28;20552;-68
2022/08/25 02:07:08;;;;;;;5.55;3.60;;;;;;;;;;5029147;28;20107;-68
2022/08/25 02:09:34;;;;;;;9.65;3.55;;;;;;;;;;5029645;28;20050;-68
2022/08/25 02:12:00;;;;;;;5.30;3.00;;;;;;;;;;5031149;28;20033;-68
2022/08/25 02:14:27;;;;;;;6.75;3.80;;;;;;;;;;5029804;28;20446;-68
2022/08/25 02:16:53;;;;;;;6.43;3.22;;;;;;;;;;5029550;28;20045;-68
2022/08/25 02:19:21;;;;;;;7.40;3.40;;;;;;;;;;5029556;28;20119;-68
2022/08/25 02:21:47;;;;;;;6.38;3.58;;;;;;;;;;5033924;28;20034;-68
2022/08/25 02:24:13;;;;;;;4.75;3.58;;;;;;;;;;5034105;28;20045;-68
2022/08/25 02:26:41;;;;;;;4.00;2.92;;;;;;;;;;5033357;28;20055;-68
2022/08/25 02:29:07;;;;;;;5.82;3.45;;;;;;;;;;5034787;28;20040;-68
2022/08/25 02:31:34;;;;;;;7.13;2.80;;;;;;;;;;5032881;28;20112;-68
2022/08/25 02:34:01;;;;;;;6.13;3.28;;;;;;;;;;5033254;28;20057;-68
2022/08/25 02:36:27;;;;;;;3.95;3.10;;;;;;;;;;5034395;28;20041;-68
2022/08/25 02:38:53;;;;;;;3.10;2.80;;;;;;;;;;5032716;28;20114;-68
2022/08/25 02:41:22;;;;;;;5.00;3.35;;;;;;;;;;5032998;28;20478;-68
2022/08/25 02:43:48;;;;;;;4.20;2.72;;;;;;;;;;5033006;28;20506;-68
2022/08/25 02:46:15;;;;;;;6.47;3.15;;;;;;;;;;5032269;28;20042;-68
2022/08/25 02:48:41;;;;;;;5.53;3.38;;;;;;;;;;5034223;28;20067;-68
2022/08/25 02:51:09;;;;;;;6.38;3.28;;;;;;;;;;5034026;28;20127;-68
2022/08/25 02:53:38;;;;;;;6.72;3.15;;;;;;;;;;5033936;28;20053;-68
2022/08/25 02:56:04;;;;;;;6.95;3.03;;;;;;;;;;5032722;28;20052;-68
2022/08/25 02:58:30;;;;;;;7.28;2.90;;;;;;;;;;5016038;28;20045;-68
2022/08/25 03:00:57;;;;;;;5.00;3.30;;;;;;;;;;5017243;28;20060;-68
2022/08/25 03:03:23;;;;;;;5.00;3.17;;;;;;;;;;5032372;28;20045;-68
2022/08/25 03:05:49;;;;;;;6.97;3.30;;;;;;;;;;5032240;28;20487;-68
2022/08/25 03:08:16;;;;;;;4.93;2.95;;;;;;;;;;5049512;28;20523;-68
2022/08/25 03:10:42;;;;;;;5.57;3.00;;;;;;;;;;5053855;28;20040;-68
2022/08/25 03:13:08;;;;;;;6.88;2.83;;;;;;;;;;5053812;28;20037;-68
2022/08/25 03:15:36;;;;;;;9.20;3.50;;;;;;;;;;5035558;28;20041;-68
2022/08/25 03:18:03;;;;;;;4.97;3.28;;;;;;;;;;5035532;28;20094;-68
2022/08/25 03:20:29;;;;;;;6.22;3.67;;;;;;;;;;5035747;28;20089;-68
2022/08/25 03:22:55;;;;;;;9.60;3.15;;;;;;;;;;5035255;28;20052;-68
2022/08/25 03:28:06;;;;;;;6.45;3.00;;;;;;;;;;5053274;28;20478;-68
2022/08/25 03:30:33;;;;;;;5.00;3.13;;;;;;;;;;5035192;28;20067;-68
2022/08/25 03:32:59;;;;;;;4.88;3.10;;;;;;;;;;5034787;28;20041;-68
2022/08/25 03:35:25;;;;;;;4.68;3.13;;;;;;;;;;5053488;28;20779;-68
2022/08/25 03:37:54;;;;;;;5.55;3.45;;;;;;;;;;5018536;28;20045;-68
2022/08/25 03:40:21;;;;;;;4.82;2.80;;;;;;;;;;5035251;28;20044;-68
2022/08/25 03:42:47;;;;;;;5.30;3.05;;;;;;;;;;5035420;28;20041;-68
2022/08/25 03:45:15;;;;;;;7.90;2.70;;;;;;;;;;5034833;28;20078;-68
2022/08/25 03:47:41;;;;;;;3.85;3.20;;;;;;;;;;5035084;28;20037;-68
2022/08/25 03:50:08;;;;;;;5.28;3.03;;;;;;;;;;5053135;28;20032;-68
2022/08/25 03:52:35;;;;;;;4.50;3.22;;;;;;;;;;5052749;28;20139;-68
2022/08/25 03:55:02;;;;;;;3.55;3.00;;;;;;;;;;5053078;28;20483;-68
2022/08/25 03:57:28;;;;;;;6.90;3.20;;;;;;;;;;5052748;28;20051;-68
2022/08/25 03:59:55;;;;;;;4.20;2.90;;;;;;;;;;5028278;28;20042;-68
2022/08/25 04:02:21;;;;;;;4.85;3.10;;;;;;;;;;5026299;28;20083;-68
2022/08/25 04:04:47;;;;;;;6.60;3.10;;;;;;;;;;5034526;28;20077;-68
2022/08/25 04:07:13;;;;;;;4.90;2.72;;;;;;;;;;5034156;28;20487;-68
2022/08/25 04:09:39;;;;;;;5.30;2.92;;;;;;;;;;5034490;28;20049;-68
2022/08/25 04:12:05;;;;;;;5.63;3.00;;;;;;;;;;5034892;28;20881;-68
2022/08/25 04:14:31;;;;;;;6.03;3.15;;;;;;;;;;5034124;28;20037;-68
2022/08/25 04:16:57;;;;;;;6.18;2.92;;;;;;;;;;5034570;28;20391;-68
2022/08/25 04:19:23;;;;;;;8.93;3.22;;;;;;;;;;5052207;28;20116;-68
2022/08/25 04:21:50;;;;;;;5.03;3.15;;;;;;;;;;5051740;28;20041;-68
2022/08/25 04:24:16;;;;;;;4.43;3.15;;;;;;;;;;5052136;28;20048;-68
2022/08/25 04:26:44;;;;;;;9.82;3.50;;;;;;;;;;5034360;28;20047;-68
2022/08/25 04:29:11;;;;;;;4.80;3.10;;;;;;;;;;5033763;28;20043;-68
2022/08/25 04:31:39;;;;;;;6.80;3.03;;;;;;;;;;5033975;28;20438;-68
2022/08/25 04:34:05;;;;;;;6.38;3.33;;;;;;;;;;5034300;28;20052;-68
2022/08/25 04:36:32;;;;;;;5.07;2.92;;;;;;;;;;5033535;28;20049;-68
2022/08/25 04:38:58;;;;;;;5.63;3.05;;;;;;;;;;5034061;28;20045;-69
2022/08/25 04:41:25;;;;;;;6.20;3.13;;;;;;;;;;5033962;28;20083;-69
2022/08/25 04:43:51;;;;;;;6.53;3.10;;;;;;;;;;5033831;28;20048;-69
2022/08/25 04:46:19;;;;;;;5.40;3.30;;;;;;;;;;5051895;28;20033;-68
2022/08/25 04:48:45;;;;;;;5.75;3.47;;;;;;;;;;5052010;28;20048;-69
2022/08/25 04:51:13;;;;;;;4.20;3.35;;;;;;;;;;5051604;28;20037;-69
2022/08/25 04:53:39;;;;;;;5.63;3.53;;;;;;;;;;5033923;28;20053;-69
2022/08/25 04:56:06;;;;;;;6.35;3.78;;;;;;;;;;5033473;28;20049;-69
2022/08/25 04:58:33;;;;;;;6.47;4.00;;;;;;;;;;5033356;28;20071;-69
2022/08/25 05:01:05;;;;;;;9.60;5.03;;;;;;;;;;5018014;28;20052;-69
2022/08/25 05:03:32;;;;;;;5.10;3.75;;;;;;;;;;5030396;28;20067;-69
2022/08/25 05:05:58;;;;;;;7.88;3.38;;;;;;;;;;5030940;28;20041;-69
2022/08/25 05:08:24;;;;;;;5.93;4.13;;;;;;;;;;5030974;28;20080;-69
2022/08/25 05:10:53;;;;;;;5.78;3.25;;;;;;;;;;5015629;28;20049;-68
2022/08/25 05:13:19;;;;;;;4.97;3.10;;;;;;;;;;5033254;28;20124;-68
2022/08/25 05:15:51;;;;;;;6.25;3.30;;;;;;;;;;5051210;28;20515;-68
2022/08/25 05:18:18;;;;;;;6.20;3.17;;;;;;;;;;5051460;28;20044;-68
2022/08/25 05:20:44;;;;;;;5.15;3.83;;;;;;;;;;5033131;28;20094;-69
2022/08/25 05:23:10;;;;;;;4.65;3.83;;;;;;;;;;5022074;28;20041;-68
2022/08/25 05:25:36;;;;;;;5.50;3.67;;;;;;;;;;5030995;28;20041;-68
2022/08/25 05:28:02;;;;;;;13.75;3.90;;;;;;;;;;5030597;28;20134;-68
2022/08/25 05:30:29;;;;;;;6.75;3.63;;;;;;;;;;5013445;28;20033;-68
2022/08/25 05:32:56;;;;;;;3.67;3.38;;;;;;;;;;5013915;28;20180;-68
2022/08/25 05:35:22;;;;;;;5.88;3.42;;;;;;;;;;5031041;28;20057;-68
2022/08/25 05:37:48;;;;;;;9.18;3.92;;;;;;;;;;5031272;28;20037;-68
2022/08/25 05:40:14;;;;;;;6.90;4.15;;;;;;;;;;5013853;28;20468;-68
2022/08/25 05:42:40;;;;;;;8.32;4.63;;;;;;;;;;5031261;28;20120;-68
2022/08/25 05:45:08;;;;;;;9.00;4.07;;;;;;;;;;5030995;28;20053;-68
2022/08/25 05:47:34;;;;;;;6.57;4.13;;;;;;;;;;5013540;28;20050;-69
2022/08/25 05:50:01;;;;;;;5.50;3.97;;;;;;;;;;5012066;28;20384;-68
2022/08/25 05:52:27;;;;;;;7.40;3.85;;;;;;;;;;5033599;28;20053;-66
2022/08/25 05:54:53;;;;;;;4.90;3.42;;;;;;;;;;5038392;28;20077;-66
2022/08/25 05:57:19;;;;;;;6.18;4.03;;;;;;;;;;5034033;28;20049;-66
2022/08/25 05:59:45;;;;;;;6.97;4.07;;;;;;;;;;5040194;28;20049;-65
2022/08/25 06:04:57;;;;;;;5.53;3.80;;;;;;;;;;5054293;28;20053;-65
2022/08/25 06:07:23;;;;;;;9.85;4.97;;;;;;;;;;5054425;28;20057;-65
2022/08/25 06:09:49;;;;;;;5.80;4.20;;;;;;;;;;5054575;28;20041;-64
2022/08/25 06:12:16;;;;;;;8.57;4.20;;;;;;;;;;5054194;28;20045;-67
2022/08/25 06:14:42;;;;;;;5.72;3.78;;;;;;;;;;5026386;28;20060;-66
2022/08/25 06:17:09;;;;;;;5.45;4.10;;;;;;;;;;5043600;28;20037;-66
2022/08/25 06:19:35;;;;;;;6.45;3.70;;;;;;;;;;5039331;28;20690;-65
2022/08/25 06:22:01;;;;;;;9.90;4.20;;;;;;;;;;5054176;28;20048;-66
2022/08/25 06:24:28;;;;;;;7.10;4.05;;;;;;;;;;5019614;28;20040;-66
2022/08/25 06:26:54;;;;;;;11.40;4.10;;;;;;;;;;5053596;28;20120;-66
2022/08/25 06:29:21;;;;;;;6.85;3.78;;;;;;;;;;5036200;28;20049;-67
2022/08/25 06:31:48;;;;;;;6.75;3.70;;;;;;;;;;5053814;28;20033;-68
2022/08/25 06:34:15;;;;;;;5.47;3.95;;;;;;;;;;5051930;28;20048;-63
2022/08/25 06:36:41;;;;;;;5.82;3.42;;;;;;;;;;5047698;28;20072;-64
2022/08/25 06:39:07;;;;;;;7.10;4.18;;;;;;;;;;5044118;28;20044;-64
2022/08/25 06:41:34;;;;;;;6.97;4.28;;;;;;;;;;5051817;28;20072;-63
2022/08/25 06:44:00;;;;;;;8.93;4.22;;;;;;;;;;5044986;28;20117;-63
2022/08/25 06:46:26;;;;;;;8.40;3.97;;;;;;;;;;5051614;28;20045;-61
2022/08/25 06:48:53;;;;;;;8.65;4.03;;;;;;;;;;5038216;28;20038;-62
2022/08/25 06:51:20;;;;;;;4.88;3.63;;;;;;;;;;5044182;28;20640;-61
2022/08/25 06:53:47;;;;;;;7.30;3.40;;;;;;;;;;5042075;28;20033;-62
2022/08/25 06:56:14;;;;;;;6.13;4.15;;;;;;;;;;5035593;28;20094;-63
2022/08/25 06:58:41;;;;;;;8.15;3.60;;;;;;;;;;5051024;28;20094;-64
2022/08/25 07:01:08;;;;;;;5.25;3.70;;;;;;;;;;5041910;28;20124;-63
2022/08/25 07:03:34;;;;;;;11.93;4.30;;;;;;;;;;5052188;28;20086;-63
2022/08/25 07:06:00;;;;;;;6.22;3.47;;;;;;;;;;5034365;28;20049;-62
2022/08/25 07:08:26;;;;;;;6.07;3.65;;;;;;;;;;5035184;28;20053;-63
2022/08/25 07:10:52;;;;;;;8.60;4.53;;;;;;;;;;5044444;28;20041;-63
2022/08/25 07:13:18;;;;;;;8.55;3.65;;;;;;;;;;5052118;28;20047;-62
2022/08/25 07:15:45;;;;;;;8.63;3.97;;;;;;;;;;5052087;28;20041;-63
2022/08/25 07:18:11;;;;;;;9.10;4.20;;;;;;;;;;5050718;28;20045;-62
2022/08/25 07:20:38;;;;;;;7.03;4.20;;;;;;;;;;5045952;28;20484;-62
2022/08/25 07:23:05;;;;;;;7.45;3.60;;;;;;;;;;5052021;28;20055;-62
2022/08/25 07:25:32;;;;;;;6.03;3.45;;;;;;;;;;5047682;28;20057;-63
2022/08/25 07:27:58;;;;;;;6.45;3.47;;;;;;;;;;5031709;28;20041;-62
2022/08/25 07:30:24;;;;;;;6.85;4.13;;;;;;;;;;5045453;28;20337;-61
2022/08/25 07:32:50;;;;;;;7.22;4.13;;;;;;;;;;5051754;28;20572;-62
2022/08/25 07:35:17;;;;;;;6.63;3.85;;;;;;;;;;5048984;28;20082;-62
2022/08/25 07:37:48;;;;;;;8.38;3.95;;;;;;;;;;5051397;28;20052;-61
2022/08/25 07:40:20;;;;;;;13.20;3.90;;;;;;;;;;5033001;28;20056;-62
2022/08/25 07:42:46;;;;;;;;;;;;;;;;;;5052362;28;20056;-63
2022/08/25 07:45:12;;;;;;;4.70;3.90;;;;;;;;;;5052083;28;19920;-64
2022/08/25 07:47:38;;;;;;;9.07;5.47;;;;;;;;;;5051986;28;20486;-63
2022/08/25 07:50:06;;;;;;;9.27;5.32;;;;;;;;;;5050086;28;20853;-64
2022/08/25 07:52:32;;;;;;;7.25;4.10;;;;;;;;;;5032362;28;20072;-64
2022/08/25 07:54:58;;;;;;;7.63;3.75;;;;;;;;;;5032065;28;20045;-64
2022/08/25 07:57:25;;;;;;;6.57;4.30;;;;;;;;;;5051407;28;20376;-63
2022/08/25 07:59:53;;;;;;;4.13;3.72;;;;;;;;;;5045595;28;20037;-64
2022/08/25 08:02:19;;;;;;;6.18;4.53;;;;;;;;;;5042821;28;20044;-62
2022/08/25 08:04:47;;;;;;;7.95;3.55;;;;;;;;;;5052021;28;20127;-62
2022/08/25 08:07:15;;;;;;;7.03;4.03;;;;;;;;;;5045272;28;20389;-63
2022/08/25 08:09:41;;;;;;;7.70;4.30;;;;;;;;;;5040556;28;20040;-62
2022/08/25 08:12:08;;;;;;;9.98;4.25;;;;;;;;;;5050988;28;20059;-62
2022/08/25 08:14:34;;;;;;;5.55;3.70;;;;;;;;;;5049592;28;20091;-61
2022/08/25 08:17:04;;;;;;;8.48;3.85;;;;;;;;;;5039278;28;20491;-58
2022/08/25 08:19:30;;;;;;;5.70;4.10;;;;;;;;;;5051216;28;20064;-60
2022/08/25 08:21:56;;;;;;;6.93;3.80;;;;;;;;;;5051509;28;20044;-60
2022/08/25 08:24:22;;;;;;;6.88;3.85;;;;;;;;;;5050814;28;20033;-60
2022/08/25 08:26:48;;;;;;;9.43;4.03;;;;;;;;;;5032755;28;20072;-61
2022/08/25 08:29:15;;;;;;;7.57;3.92;;;;;;;;;;5033797;28;20426;-61
2022/08/25 08:31:41;;;;;;;9.43;4.63;;;;;;;;;;5033548;28;20102;-61
2022/08/25 08:34:07;;;;;;;7.93;3.88;;;;;;;;;;5050648;28;20037;-60
2022/08/25 08:36:33;;;;;;;8.73;4.00;;;;;;;;;;5047903;28;20037;-60
2022/08/25 08:38:59;;;;;;;6.88;3.78;;;;;;;;;;5039121;28;20044;-61
2022/08/25 08:44:25;;;;;;;6.82;3.70;;;;;;;;;;5039522;28;20045;-61
2022/08/25 08:47:03;;;;;;;6.10;3.80;;;;;;;;;;5031912;28;20045;-63
2022/08/25 08:49:39;;;;;;;6.38;3.42;;;;;;;;;;5050811;28;20383;-62
2022/08/25 08:52:08;;;;;;;7.93;4.28;;;;;;;;;;5050490;28;20419;-62
2022/08/25 08:54:37;;;;;;;8.52;3.40;;;;;;;;;;5050239;28;20033;-62
2022/08/25 08:57:17;;;;;;;6.60;3.70;;;;;;;;;;5050910;28;20044;-62
2022/08/25 08:59:54;;;;;;;7.10;3.75;;;;;;;;;;5045843;28;20072;-63
2022/08/25 09:02:33;;;;;;;5.97;3.53;;;;;;;;;;5043310;28;20124;-63
2022/08/25 09:05:01;;;;;;;6.05;3.40;;;;;;;;;;5050370;28;20044;-62
2022/08/25 09:08:00;;;;;;;3.97;3.20;;;;;;;;;;5050060;28;20076;-63
2022/08/25 09:10:28;;;;;;;6.28;3.47;;;;;;;;;;4995205;28;20057;-62
2022/08/25 09:12:57;;;;;;;7.57;3.05;;;;;;;;;;5050874;28;20079;-61
2022/08/25 09:18:46;;;;;;;5.75;2.95;;;;;;;;;;5047909;28;20595;-63
2022/08/25 09:21:29;;;;;;;7.10;3.35;;;;;;;;;;5030467;28;20068;-63
2022/08/25 09:24:18;;;;;;;4.82;3.10;;;;;;;;;;5030202;28;20057;-63
2022/08/25 09:26:48;;;;;;;7.85;3.38;;;;;;;;;;5046672;28;20033;-63
2022/08/25 09:29:15;;;;;;;3.95;3.03;;;;;;;;;;5043233;28;20423;-62
2022/08/25 09:31:41;;;;;;;4.25;2.85;;;;;;;;;;5029660;28;20083;-63
2022/08/25 09:34:12;;;;;;;5.47;2.65;;;;;;;;;;5030602;28;20053;-65
2022/08/25 09:36:38;;;;;;;9.20;2.88;;;;;;;;;;5043157;28;20089;-63
2022/08/25 09:39:04;;;;;;;4.85;2.60;;;;;;;;;;5043348;28;20121;-63
2022/08/25 09:41:42;;;;;;;6.75;2.55;;;;;;;;;;5030444;28;20072;-62
2022/08/25 09:44:27;;;;;;;4.18;2.42;;;;;;;;;;5035035;28;20046;-62
2022/08/25 09:47:02;;;;;;;4.05;2.70;;;;;;;;;;5037290;28;20522;-62
2022/08/25 09:49:39;;;;;;;7.43;2.80;;;;;;;;;;5050087;28;20043;-61
2022/08/25 09:52:25;;;;;;;8.50;2.95;;;;;;;;;;5050035;28;20029;-60
2022/08/25 09:54:52;;;;;;;4.35;2.42;;;;;;;;;;5030427;28;20353;-62
2022/08/25 09:57:27;;;;;;;9.88;2.80;;;;;;;;;;5043660;28;20072;-62
2022/08/25 09:59:54;;;;;;;4.32;2.30;;;;;;;;;;5035653;28;20053;-62
2022/08/25 10:02:25;;;;;;;9.18;3.10;;;;;;;;;;5035750;28;20487;-64
2022/08/25 10:04:52;;;;;;;5.90;2.78;;;;;;;;;;5030294;28;20042;-64
2022/08/25 10:07:28;;;;;;;5.80;2.50;;;;;;;;;;5031697;28;20061;-63
2022/08/25 10:09:56;;;;;;;6.20;2.60;;;;;;;;;;5040896;28;20115;-64
2022/08/25 10:12:41;;;;;;;9.75;3.83;;;;;;;;;;5049485;28;20069;-63
2022/08/25 10:15:16;;;;;;;7.00;3.28;;;;;;;;;;5039641;28;20041;-64
2022/08/25 10:17:42;;;;;;;6.03;2.53;;;;;;;;;;5039000;28;20116;-64
2022/08/25 10:20:08;;;;;;;7.05;2.58;;;;;;;;;;5047906;28;20095;-63
2022/08/25 10:22:35;;;;;;;14.68;8.75;;;;;;;;;;5040167;28;20045;-62
2022/08/25 10:25:01;;;;;;;9.52;5.03;;;;;;;;;;5049303;28;20049;-63
2022/08/25 10:27:40;;;;;;;5.00;2.70;;;;;;;;;;5047006;28;20041;-62
2022/08/25 10:30:24;;;;;;;6.78;2.63;;;;;;;;;;5043888;28;20049;-62
2022/08/25 10:32:56;;;;;;;5.97;2.70;;;;;;;;;;5032329;28;20423;-62
2022/08/25 10:35:22;;;;;;;;;;;;;;;;;;5041663;28;20075;-62
2022/08/25 10:38:04;;;;;;;3.50;2.30;;;;;;;;;;5029082;28;19924;-61
2022/08/25 10:40:56;;;;;;;5.88;2.67;;;;;;;;;;5047607;28;20041;-61
2022/08/25 10:43:38;;;;;;;4.22;2.55;;;;;;;;;;5030315;28;20052;-61
2022/08/25 10:46:13;;;;;;;4.25;2.42;;;;;;;;;;5032567;28;20482;-61
2022/08/25 10:48:58;;;;;;;3.58;2.40;;;;;;;;;;5041634;28;20037;-61
2022/08/25 10:51:43;;;;;;;7.03;2.63;;;;;;;;;;5044861;28;20037;-61
2022/08/25 10:54:18;;;;;;;6.68;2.70;;;;;;;;;;5032665;28;20664;-62
2022/08/25 10:56:50;;;;;;;6.50;2.53;;;;;;;;;;5033755;28;20081;-63
2022/08/25 10:59:23;;;;;;;3.00;2.20;;;;;;;;;;5049111;28;20041;-64
2022/08/25 11:02:12;;;;;;;5.10;2.83;;;;;;;;;;5043424;28;20033;-61
2022/08/25 11:04:41;;;;;;;4.65;2.30;;;;;;;;;;5024720;28;20049;-58
2022/08/25 11:07:20;;;;;;;3.08;2.55;;;;;;;;;;5043248;28;20053;-57
2022/08/25 11:09:48;;;;;;;3.55;2.55;;;;;;;;;;5034285;28;20053;-58
2022/08/25 11:12:17;;;;;;;3.83;2.80;;;;;;;;;;5043398;28;20037;-59
2022/08/25 11:14:55;;;;;;;5.03;3.08;;;;;;;;;;5040943;28;20045;-59
2022/08/25 11:17:24;;;;;;;5.22;2.95;;;;;;;;;;5024601;28;20049;-58
2022/08/25 11:19:52;;;;;;;6.63;2.70;;;;;;;;;;5040292;28;20033;-58
2022/08/25 11:22:34;;;;;;;3.38;2.63;;;;;;;;;;5044366;28;20510;-58
2022/08/25 11:25:18;;;;;;;3.60;2.58;;;;;;;;;;5039907;28;20038;-57
2022/08/25 11:27:47;;;;;;;4.57;2.10;;;;;;;;;;5033835;28;20427;-57
2022/08/25 11:30:16;;;;;;;3.55;2.03;;;;;;;;;;5050554;28;20709;-57
2022/08/25 11:32:45;;;;;;;5.70;2.50;;;;;;;;;;5052067;28;20045;-58
2022/08/25 11:35:12;;;;;;;6.63;2.38;;;;;;;;;;5051058;28;20041;-58
2022/08/25 11:37:59;;;;;;;3.88;2.40;;;;;;;;;;5051077;28;20044;-57
2022/08/25 11:40:37;;;;;;;5.40;2.55;;;;;;;;;;5045398;28;20045;-57
2022/08/25 11:43:13;;;;;;;4.32;2.75;;;;;;;;;;5036697;28;20037;-57
2022/08/25 11:45:53;;;;;;;5.93;2.58;;;;;;;;;;5050647;28;20127;-57
2022/08/25 11:48:22;;;;;;;4.57;2.47;;;;;;;;;;5051511;28;20083;-57
2022/08/25 11:51:18;;;;;;;6.88;3.10;;;;;;;;;;5019593;28;20037;-57
2022/08/25 11:53:44;;;;;;;7.68;2.72;;;;;;;;;;5014750;28;20060;-59
2022/08/25 11:56:33;;;;;;;5.43;2.90;;;;;;;;;;5038512;28;20447;-60
2022/08/25 11:59:00;;;;;;;3.90;2.97;;;;;;;;;;5029026;28;20528;-60
2022/08/25 12:01:42;;;;;;;6.80;2.85;;;;;;;;;;5035334;28;20048;-58
2022/08/25 12:04:26;;;;;;;3.70;2.40;;;;;;;;;;5048813;28;20091;-58
2022/08/25 12:07:09;;;;;;;3.70;2.55;;;;;;;;;;5045910;28;20060;-59
2022/08/25 12:09:52;;;;;;;4.32;2.33;;;;;;;;;;5050429;28;20678;-60
2022/08/25 12:12:29;;;;;;;2.53;2.20;;;;;;;;;;5050731;28;20037;-60
2022/08/25 12:14:55;;;;;;;6.10;2.17;;;;;;;;;;5042707;28;20534;-58
2022/08/25 12:17:24;;;;;;;6.35;2.17;;;;;;;;;;5049196;28;20513;-58
2022/08/25 12:19:52;;;;;;;5.90;2.25;;;;;;;;;;5041434;28;20041;-58
2022/08/25 12:22:21;;;;;;;3.30;2.10;;;;;;;;;;5048578;28;20128;-54
2022/08/25 12:24:47;;;;;;;3.45;2.00;;;;;;;;;;5050302;28;20040;-58
2022/08/25 12:27:32;;;;;;;2.45;1.90;;;;;;;;;;5049828;28;20379;-59
2022/08/25 12:30:04;;;;;;;3.80;1.90;;;;;;;;;;5050216;28;20060;-60
2022/08/25 12:32:39;;;;;;;3.67;2.03;;;;;;;;;;5032429;28;20037;-59
2022/08/25 12:35:23;;;;;;;2.45;1.52;;;;;;;;;;5050158;28;20110;-59
2022/08/25 12:37:55;;;;;;;2.00;1.80;;;;;;;;;;5038693;28;20044;-59
2022/08/25 12:40:27;;;;;;;4.20;1.83;;;;;;;;;;5042085;28;20049;-59
2022/08/25 12:43:04;;;;;;;4.07;1.88;;;;;;;;;;5045987;28;20112;-59
2022/08/25 12:45:33;;;;;;;3.10;1.70;;;;;;;;;;5050964;28;20127;-60
2022/08/25 12:48:18;;;;;;;1.88;1.60;;;;;;;;;;5051214;28;20041;-58
2022/08/25 12:50:48;;;;;;;3.95;2.28;;;;;;;;;;5036891;28;20045;-58
2022/08/25 12:53:17;;;;;;;2.95;1.70;;;;;;;;;;5014559;28;20080;-58
2022/08/25 12:55:49;;;;;;;4.93;1.95;;;;;;;;;;5050880;28;20076;-58
2022/08/25 12:58:15;;;;;;;;;;;;;;;;;;5051419;28;20045;-56
2022/08/25 13:00:44;;;;;;;3.40;1.30;;;;;;;;;;5037690;28;19921;-59
2022/08/25 13:03:10;;;;;;;3.83;1.70;;;;;;;;;;5046858;28;20047;-60
2022/08/25 13:05:40;;;;;;;4.43;1.90;;;;;;;;;;5029743;28;20045;-58
2022/08/25 13:08:38;;;;;;;2.83;1.67;;;;;;;;;;5030055;28;20504;-58
2022/08/25 13:11:10;;;;;;;2.25;1.90;;;;;;;;;;5002238;28;20411;-60
2022/08/25 13:13:46;;;;;;;5.07;2.15;;;;;;;;;;5034394;28;20033;-60
2022/08/25 13:16:17;;;;;;;2.88;1.75;;;;;;;;;;5050700;28;20045;-60
2022/08/25 13:18:43;;;;;;;3.97;2.00;;;;;;;;;;5050647;28;20041;-60
2022/08/25 13:21:17;;;;;;;3.08;2.10;;;;;;;;;;5050483;28;20548;-60
2022/08/25 13:23:45;;;;;;;3.30;2.03;;;;;;;;;;5030529;28;20204;-60
2022/08/25 13:26:13;;;;;;;7.43;2.25;;;;;;;;;;5038982;28;20037;-58
2022/08/25 13:28:40;;;;;;;3.85;1.83;;;;;;;;;;5049866;28;20037;-59
2022/08/25 13:31:08;;;;;;;4.47;2.35;;;;;;;;;;5049930;28;20095;-60
2022/08/25 13:33:35;;;;;;;2.78;1.80;;;;;;;;;;5030881;28;20071;-61
2022/08/25 13:38:50;;;;;;;3.45;1.98;;;;;;;;;;5015417;28;20052;-60
2022/08/25 13:41:22;;;;;;;5.22;1.90;;;;;;;;;;5050432;28;20049;-61
2022/08/25 13:43:48;;;;;;;3.17;1.80;;;;;;;;;;5030542;28;20047;-58
2022/08/25 13:46:18;;;;;;;3.10;2.03;;;;;;;;;;5030813;28;20046;-58
2022/08/25 13:48:44;;;;;;;2.72;1.90;;;;;;;;;;5030690;28;20095;-59
2022/08/25 13:51:28;;;;;;;3.05;2.25;;;;;;;;;;5030223;28;20069;-59
2022/08/25 13:53:57;;;;;;;4.70;2.20;;;;;;;;;;5050810;28;20047;-60
2022/08/25 13:56:29;;;;;;;3.88;2.10;;;;;;;;;;5050581;28;20430;-60
2022/08/25 13:58:57;;;;;;;7.63;2.22;;;;;;;;;;5050269;28;20076;-61
2022/08/25 14:01:27;;;;;;;3.95;2.00;;;;;;;;;;5034395;28;20166;-60
2022/08/25 14:03:54;;;;;;;6.50;2.20;;;;;;;;;;5050772;28;20041;-61
2022/08/25 14:06:23;;;;;;;3.78;1.90;;;;;;;;;;5041350;28;20034;-61
2022/08/25 14:08:56;;;;;;;3.70;2.05;;;;;;;;;;5030838;28;20045;-61
2022/08/25 14:11:24;;;;;;;4.47;2.10;;;;;;;;;;5030310;28;20427;-61
2022/08/25 14:13:59;;;;;;;5.63;2.42;;;;;;;;;;5034221;28;20116;-62
2022/08/25 14:16:25;;;;;;;4.53;3.13;;;;;;;;;;5050602;28;20053;-62
2022/08/25 14:18:54;;;;;;;3.65;2.20;;;;;;;;;;5054408;28;20068;-62
2022/08/25 14:21:23;;;;;;;3.13;2.63;;;;;;;;;;5052991;28;20107;-62
2022/08/25 14:23:49;;;;;;;2.92;2.47;;;;;;;;;;5054111;28;20049;-62
2022/08/25 14:26:15;;;;;;;3.53;2.20;;;;;;;;;;5053920;28;20157;-61
2022/08/25 14:28:41;;;;;;;4.47;2.63;;;;;;;;;;5042142;28;20079;-61
2022/08/25 14:31:27;;;;;;;4.22;2.60;;;;;;;;;;5033823;28;20091;-59
2022/08/25 14:33:57;;;;;;;8.05;3.15;;;;;;;;;;5034251;28;20547;-59
2022/08/25 14:36:23;;;;;;;4.82;2.55;;;;;;;;;;5033646;28;20053;-60
2022/08/25 14:38:49;;;;;;;6.85;2.55;;;;;;;;;;5045569;28;20091;-58
2022/08/25 14:41:15;;;;;;;3.05;2.13;;;;;;;;;;5037992;28;20037;-57
2022/08/25 14:43:41;;;;;;;3.50;2.25;;;;;;;;;;5033458;28;20045;-59
2022/08/25 14:46:19;;;;;;;2.90;2.25;;;;;;;;;;5041571;28;20045;-57
2022/08/25 14:48:46;;;;;;;5.88;2.30;;;;;;;;;;5053858;28;20045;-59
2022/08/25 14:51:13;;;;;;;3.30;2.13;;;;;;;;;;5038677;28;20033;-59
2022/08/25 14:53:40;;;;;;;4.05;2.25;;;;;;;;;;5034082;28;20491;-61
2022/08/25 14:56:06;;;;;;;5.50;2.50;;;;;;;;;;5034054;28;20136;-61
2022/08/25 14:58:33;;;;;;;6.18;2.38;;;;;;;;;;5033818;28;20049;-62
2022/08/25 15:00:59;;;;;;;3.72;1.95;;;;;;;;;;5049434;28;20121;-62
2022/08/25 15:03:29;;;;;;;6.93;2.30;;;;;;;;;;5034007;28;20052;-62
2022/08/25 15:05:56;;;;;;;3.33;2.08;;;;;;;;;;5033279;28;20539;-62
2022/08/25 15:11:06;;;;;;;4.05;2.00;;;;;;;;;;5033618;28;20065;-62
2022/08/25 15:13:32;;;;;;;4.43;2.17;;;;;;;;;;5033491;28;20041;-62